PWSweather.com
Personal Weather Stations
Station Observations
COONRAPIDS
Minneapolis, MN 55433

Minneapolis, MN 55433

Lat: 45.187721, Lon: -93.36828

Elevation: 898

Station Type: Davis Vantage Pro 2

Latest ConditionsUpdated 11:50:01 AM CST Friday, Dec 2, 2016
Currently Today's Max Today's Min Today's Average
Temperature 32.4°F0.2°C 32.4°F0.2°C 31.0°F-0.6°C 31.4°F-0.3°C
Dew Point 23.7°F-4.6°C 23.8°F-4.6°C 21.3°F-5.9°C 22.5°F-5.3°C
Winds Calm Calm 2.3 mph NW3.7 kmh NW - 0.5 mph 0.8 kmh
Wind Gusts -- 4.6 mph7.4 kmh - -
Humidity 70% 72% 66% 69%
Pressure 30.25 in1024.4 mb 30.25 in1024.4 mb 30.06 in1017.9 mb -
Hour Temp Dew Point Humidity Winds Wind Gusts Pressure Precip Precip Rate Daily Precip Total
11:50 AM 32.4°F0.2°C 23.7°F-4.6°C 70% Calm Calm -- 30.25 in1024.4 mb - 0.00 in0.0 mm 0.00 in0.0 mm
11:40 AM 32.3°F0.2°C 23.6°F-4.7°C 70% Calm Calm -- 30.25 in1024.4 mb - 0.00 in0.0 mm 0.00 in0.0 mm
11:30 AM 32.3°F0.2°C 23.6°F-4.7°C 70% 2.3 mph NW3.7 kmh NW 1.2 mph1.9 kmh 30.25 in1024.4 mb - 0.00 in0.0 mm 0.00 in0.0 mm
11:20 AM 32.2°F0.1°C 23.5°F-4.7°C 70% Calm Calm 1.2 mph1.9 kmh 30.25 in1024.4 mb - 0.00 in0.0 mm 0.00 in0.0 mm
11:10 AM 32.3°F0.2°C 23.6°F-4.7°C 70% Calm Calm -- 30.25 in1024.4 mb - 0.00 in0.0 mm 0.00 in0.0 mm
11:00 AM 32.2°F0.1°C 23.5°F-4.7°C 70% Calm Calm -- 30.25 in1024.4 mb - 0.00 in0.0 mm 0.00 in0.0 mm
10:50 AM 32.1°F0.1°C 23.8°F-4.6°C 71% Calm Calm -- 30.25 in1024.4 mb - 0.00 in0.0 mm 0.00 in0.0 mm
10:40 AM 31.9°F-0.1°C 23.6°F-4.7°C 71% 1.2 mph W1.9 kmh W 1.2 mph1.9 kmh 30.25 in1024.4 mb - 0.00 in0.0 mm 0.00 in0.0 mm
10:30 AM 31.8°F-0.1°C 23.5°F-4.7°C 71% Calm Calm 1.2 mph1.9 kmh 30.25 in1024.4 mb - 0.00 in0.0 mm 0.00 in0.0 mm
10:20 AM 31.7°F-0.2°C 23.0°F-5.0°C 70% 2.3 mph NW3.7 kmh NW 3.5 mph5.6 kmh 30.25 in1024.4 mb - 0.00 in0.0 mm 0.00 in0.0 mm
10:10 AM 31.7°F-0.2°C 23.4°F-4.8°C 71% 1.2 mph N1.9 kmh N 2.3 mph3.7 kmh 30.24 in1024.0 mb - 0.00 in0.0 mm 0.00 in0.0 mm
10:00 AM 31.5°F-0.3°C 23.5°F-4.7°C 72% Calm Calm -- 30.24 in1024.0 mb - 0.00 in0.0 mm 0.00 in0.0 mm
09:50 AM 31.4°F-0.3°C 23.1°F-4.9°C 71% 1.2 mph W1.9 kmh W 3.5 mph5.6 kmh 30.23 in1023.7 mb - 0.00 in0.0 mm 0.00 in0.0 mm
09:40 AM 31.3°F-0.4°C 23.0°F-5.0°C 71% 1.2 mph NW1.9 kmh NW 3.5 mph5.6 kmh 30.23 in1023.7 mb - 0.00 in0.0 mm 0.00 in0.0 mm
09:30 AM 31.3°F-0.4°C 23.0°F-5.0°C 71% 1.2 mph NW1.9 kmh NW 2.3 mph3.7 kmh 30.23 in1023.7 mb - 0.00 in0.0 mm 0.00 in0.0 mm
09:20 AM 31.3°F-0.4°C 23.3°F-4.8°C 72% 1.2 mph NW1.9 kmh NW 4.6 mph7.4 kmh 30.22 in1023.4 mb - 0.00 in0.0 mm 0.00 in0.0 mm
09:10 AM 31.2°F-0.4°C 23.2°F-4.9°C 72% Calm Calm -- 30.22 in1023.4 mb - 0.00 in0.0 mm 0.00 in0.0 mm
09:00 AM 31.2°F-0.4°C 23.2°F-4.9°C 72% 2.3 mph WNW3.7 kmh WNW 2.3 mph3.7 kmh 30.22 in1023.4 mb - 0.00 in0.0 mm 0.00 in0.0 mm
08:50 AM 31.1°F-0.5°C 22.8°F-5.1°C 71% Calm Calm -- 30.21 in1023.0 mb - 0.00 in0.0 mm 0.00 in0.0 mm
08:40 AM 31.0°F-0.6°C 22.7°F-5.2°C 71% 1.2 mph NW1.9 kmh NW 3.5 mph5.6 kmh 30.21 in1023.0 mb - 0.00 in0.0 mm 0.00 in0.0 mm
08:30 AM 31.0°F-0.6°C 22.7°F-5.2°C 71% 1.2 mph NW1.9 kmh NW 3.5 mph5.6 kmh 30.21 in1023.0 mb - 0.00 in0.0 mm 0.00 in0.0 mm
08:20 AM 31.0°F-0.6°C 22.7°F-5.2°C 71% 2.3 mph W3.7 kmh W 4.6 mph7.4 kmh 30.20 in1022.7 mb - 0.00 in0.0 mm 0.00 in0.0 mm
08:10 AM 31.0°F-0.6°C 22.7°F-5.2°C 71% Calm Calm -- 30.20 in1022.7 mb - 0.00 in0.0 mm 0.00 in0.0 mm
08:00 AM 31.0°F-0.6°C 22.7°F-5.2°C 71% 2.3 mph WNW3.7 kmh WNW 3.5 mph5.6 kmh 30.20 in1022.7 mb - 0.00 in0.0 mm 0.00 in0.0 mm
07:50 AM 31.0°F-0.6°C 22.7°F-5.2°C 71% Calm Calm -- 30.19 in1022.4 mb - 0.00 in0.0 mm 0.00 in0.0 mm
07:40 AM 31.0°F-0.6°C 22.7°F-5.2°C 71% Calm Calm 1.2 mph1.9 kmh 30.19 in1022.4 mb - 0.00 in0.0 mm 0.00 in0.0 mm
07:30 AM 31.0°F-0.6°C 22.7°F-5.2°C 71% Calm Calm -- 30.19 in1022.4 mb - 0.00 in0.0 mm 0.00 in0.0 mm
07:20 AM 31.0°F-0.6°C 22.4°F-5.3°C 70% Calm Calm 1.2 mph1.9 kmh 30.19 in1022.4 mb - 0.00 in0.0 mm 0.00 in0.0 mm
07:10 AM 31.0°F-0.6°C 22.4°F-5.3°C 70% Calm Calm 1.2 mph1.9 kmh 30.19 in1022.4 mb - 0.00 in0.0 mm 0.00 in0.0 mm
07:00 AM 31.0°F-0.6°C 22.4°F-5.3°C 70% Calm Calm -- 30.18 in1022.0 mb - 0.00 in0.0 mm 0.00 in0.0 mm
06:50 AM 31.0°F-0.6°C 22.4°F-5.3°C 70% 1.2 mph WNW1.9 kmh WNW 3.5 mph5.6 kmh 30.18 in1022.0 mb - 0.00 in0.0 mm 0.00 in0.0 mm
06:40 AM 31.1°F-0.5°C 22.4°F-5.3°C 70% Calm Calm -- 30.18 in1022.0 mb - 0.00 in0.0 mm 0.00 in0.0 mm
06:30 AM 31.1°F-0.5°C 22.5°F-5.3°C 70% Calm Calm 3.5 mph5.6 kmh 30.17 in1021.7 mb - 0.00 in0.0 mm 0.00 in0.0 mm
06:20 AM 31.1°F-0.5°C 22.5°F-5.3°C 70% Calm Calm -- 30.17 in1021.7 mb - 0.00 in0.0 mm 0.00 in0.0 mm
06:10 AM 31.1°F-0.5°C 22.1°F-5.5°C 69% Calm Calm 3.5 mph5.6 kmh 30.16 in1021.3 mb - 0.00 in0.0 mm 0.00 in0.0 mm
06:00 AM 31.2°F-0.4°C 22.2°F-5.4°C 69% Calm Calm -- 30.16 in1021.3 mb - 0.00 in0.0 mm 0.00 in0.0 mm
05:50 AM 31.2°F-0.4°C 22.2°F-5.4°C 69% Calm Calm 3.5 mph5.6 kmh 30.16 in1021.3 mb - 0.00 in0.0 mm 0.00 in0.0 mm
05:40 AM 31.2°F-0.4°C 22.2°F-5.4°C 69% Calm Calm -- 30.16 in1021.3 mb - 0.00 in0.0 mm 0.00 in0.0 mm
05:30 AM 31.2°F-0.4°C 22.2°F-5.4°C 69% Calm Calm -- 30.16 in1021.3 mb - 0.00 in0.0 mm 0.00 in0.0 mm
05:20 AM 31.2°F-0.4°C 21.9°F-5.6°C 68% Calm Calm -- 30.16 in1021.3 mb - 0.00 in0.0 mm 0.00 in0.0 mm
05:10 AM 31.2°F-0.4°C 21.9°F-5.6°C 68% Calm Calm -- 30.15 in1021.0 mb - 0.00 in0.0 mm 0.00 in0.0 mm
05:00 AM 31.3°F-0.4°C 21.6°F-5.8°C 67% Calm Calm -- 30.15 in1021.0 mb - 0.00 in0.0 mm 0.00 in0.0 mm
04:50 AM 31.3°F-0.4°C 21.6°F-5.8°C 67% Calm Calm -- 30.14 in1020.7 mb - 0.00 in0.0 mm 0.00 in0.0 mm
04:40 AM 31.4°F-0.3°C 21.3°F-5.9°C 66% Calm Calm -- 30.14 in1020.7 mb - 0.00 in0.0 mm 0.00 in0.0 mm
04:30 AM 31.4°F-0.3°C 21.3°F-5.9°C 66% Calm Calm 1.2 mph1.9 kmh 30.14 in1020.7 mb - 0.00 in0.0 mm 0.00 in0.0 mm
04:20 AM 31.4°F-0.3°C 21.3°F-5.9°C 66% 1.2 mph NW1.9 kmh NW 3.5 mph5.6 kmh 30.14 in1020.7 mb - 0.00 in0.0 mm 0.00 in0.0 mm
04:10 AM 31.4°F-0.3°C 21.7°F-5.7°C 67% Calm Calm -- 30.13 in1020.3 mb - 0.00 in0.0 mm 0.00 in0.0 mm
04:00 AM 31.4°F-0.3°C 21.7°F-5.7°C 67% Calm Calm -- 30.13 in1020.3 mb - 0.00 in0.0 mm 0.00 in0.0 mm
03:50 AM 31.4°F-0.3°C 21.7°F-5.7°C 67% Calm Calm -- 30.13 in1020.3 mb - 0.00 in0.0 mm 0.00 in0.0 mm
03:40 AM 31.5°F-0.3°C 22.1°F-5.5°C 68% 1.2 mph NW1.9 kmh NW 4.6 mph7.4 kmh 30.12 in1020.0 mb - 0.00 in0.0 mm 0.00 in0.0 mm
03:30 AM 31.4°F-0.3°C 22.4°F-5.3°C 69% Calm Calm -- 30.12 in1020.0 mb - 0.00 in0.0 mm 0.00 in0.0 mm
03:20 AM 31.5°F-0.3°C 22.1°F-5.5°C 68% Calm Calm 1.2 mph1.9 kmh 30.12 in1020.0 mb - 0.00 in0.0 mm 0.00 in0.0 mm
03:10 AM 31.4°F-0.3°C 22.1°F-5.5°C 68% Calm Calm 1.2 mph1.9 kmh 30.11 in1019.6 mb - 0.00 in0.0 mm 0.00 in0.0 mm
03:00 AM 31.4°F-0.3°C 22.1°F-5.5°C 68% Calm Calm -- 30.11 in1019.6 mb - 0.00 in0.0 mm 0.00 in0.0 mm
02:50 AM 31.5°F-0.3°C 22.1°F-5.5°C 68% Calm Calm 1.2 mph1.9 kmh 30.11 in1019.6 mb - 0.00 in0.0 mm 0.00 in0.0 mm
02:40 AM 31.5°F-0.3°C 22.1°F-5.5°C 68% Calm Calm -- 30.11 in1019.6 mb - 0.00 in0.0 mm 0.00 in0.0 mm
02:30 AM 31.5°F-0.3°C 22.1°F-5.5°C 68% Calm Calm -- 30.11 in1019.6 mb - 0.00 in0.0 mm 0.00 in0.0 mm
02:20 AM 31.5°F-0.3°C 21.8°F-5.7°C 67% 2.3 mph NW3.7 kmh NW 3.5 mph5.6 kmh 30.11 in1019.6 mb - 0.00 in0.0 mm 0.00 in0.0 mm
02:10 AM 31.4°F-0.3°C 21.7°F-5.7°C 67% 1.2 mph NW1.9 kmh NW 1.2 mph1.9 kmh 30.10 in1019.3 mb - 0.00 in0.0 mm 0.00 in0.0 mm
02:00 AM 31.4°F-0.3°C 21.7°F-5.7°C 67% Calm Calm 2.3 mph3.7 kmh 30.10 in1019.3 mb - 0.00 in0.0 mm 0.00 in0.0 mm
01:50 AM 31.5°F-0.3°C 22.5°F-5.3°C 69% 2.3 mph NW3.7 kmh NW 3.5 mph5.6 kmh 30.09 in1019.0 mb - 0.00 in0.0 mm 0.00 in0.0 mm
01:40 AM 31.4°F-0.3°C 22.7°F-5.2°C 70% 1.2 mph WNW1.9 kmh WNW 3.5 mph5.6 kmh 30.09 in1019.0 mb - 0.00 in0.0 mm 0.00 in0.0 mm
01:30 AM 31.4°F-0.3°C 22.4°F-5.3°C 69% Calm Calm -- 30.09 in1019.0 mb - 0.00 in0.0 mm 0.00 in0.0 mm
01:20 AM 31.3°F-0.4°C 22.3°F-5.4°C 69% Calm Calm -- 30.09 in1019.0 mb - 0.00 in0.0 mm 0.00 in0.0 mm
01:10 AM 31.3°F-0.4°C 22.3°F-5.4°C 69% Calm Calm -- 30.08 in1018.6 mb - 0.00 in0.0 mm 0.00 in0.0 mm
01:00 AM 31.4°F-0.3°C 22.1°F-5.5°C 68% Calm Calm -- 30.08 in1018.6 mb - 0.00 in0.0 mm 0.00 in0.0 mm
12:50 AM 31.4°F-0.3°C 22.4°F-5.3°C 69% 1.2 mph N1.9 kmh N 2.3 mph3.7 kmh 30.08 in1018.6 mb - 0.00 in0.0 mm 0.00 in0.0 mm
12:40 AM 31.4°F-0.3°C 22.4°F-5.3°C 69% Calm Calm -- 30.07 in1018.3 mb - 0.00 in0.0 mm 0.00 in0.0 mm
12:30 AM 31.5°F-0.3°C 22.8°F-5.1°C 70% Calm Calm -- 30.07 in1018.3 mb - 0.00 in0.0 mm 0.00 in0.0 mm
12:20 AM 31.4°F-0.3°C 22.4°F-5.3°C 69% Calm Calm -- 30.07 in1018.3 mb - 0.00 in0.0 mm 0.00 in0.0 mm
12:10 AM 31.4°F-0.3°C 22.4°F-5.3°C 69% Calm Calm -- 30.07 in1018.3 mb - 0.00 in0.0 mm 0.00 in0.0 mm
12:00 AM 31.4°F-0.3°C 22.4°F-5.3°C 69% 1.2 mph NW1.9 kmh NW -- 30.06 in1017.9 mb - 0.00 in0.0 mm 0.00 in0.0 mm